Time;durP1;ratioP1;P1;durP2;ratioP2;P2;SDS_P1;SDS_P2;PMS_P1;PMS_P2;Temp;Humidity;BMP_temperature;BMP_pressure;BME280_temperature;BME280_humidity;BME280_pressure;Samples;Min_cycle;Max_cycle;Signal;HPM_P1;HPM_P2
2022/11/06 00:02:00;;;;;;;4.73;3.67;;;8.30;99.90;;;;;;5043441;28;20324;-70
2022/11/06 00:04:28;;;;;;;5.90;3.80;;;8.30;99.90;;;;;;5039111;28;20239;-70
2022/11/06 00:06:54;;;;;;;4.97;3.83;;;8.30;99.90;;;;;;5045888;28;20212;-70
2022/11/06 00:09:20;;;;;;;5.63;3.13;;;8.30;99.90;;;;;;5061214;28;20458;-70
2022/11/06 00:11:48;;;;;;;5.57;3.53;;;8.30;99.90;;;;;;5055017;28;20231;-70
2022/11/06 00:14:15;;;;;;;6.03;4.03;;;8.30;99.90;;;;;;5045500;28;20455;-71
2022/11/06 00:16:43;;;;;;;5.43;3.87;;;8.20;99.90;;;;;;5040166;28;20882;-70
2022/11/06 00:19:09;;;;;;;5.67;4.60;;;8.20;99.90;;;;;;5022450;28;20883;-70
2022/11/06 00:21:35;;;;;;;3.73;3.30;;;8.20;99.90;;;;;;5057413;28;20467;-70
2022/11/06 00:24:04;;;;;;;5.10;3.90;;;8.20;99.90;;;;;;5040074;28;20466;-70
2022/11/06 00:26:30;;;;;;;5.57;3.70;;;8.20;99.90;;;;;;5046393;28;20458;-70
2022/11/06 00:28:56;;;;;;;3.97;3.03;;;8.20;99.90;;;;;;5044127;28;20458;-71
2022/11/06 00:31:25;;;;;;;5.20;3.80;;;8.20;99.90;;;;;;5039586;28;20490;-71
2022/11/06 00:33:52;;;;;;;6.20;4.27;;;8.10;99.90;;;;;;5058986;28;20958;-70
2022/11/06 00:36:20;;;;;;;4.10;3.60;;;8.10;99.90;;;;;;5059354;28;20974;-71
2022/11/06 00:38:46;;;;;;;4.77;3.10;;;8.10;99.90;;;;;;5045408;28;20443;-69
2022/11/06 00:41:14;;;;;;;5.77;3.63;;;8.10;99.90;;;;;;5039911;28;20493;-70
2022/11/06 00:43:40;;;;;;;4.00;3.30;;;8.10;99.90;;;;;;5038865;28;20900;-69
2022/11/06 00:46:10;;;;;;;6.93;3.70;;;8.10;99.90;;;;;;5041037;28;20464;-69
2022/11/06 00:48:37;;;;;;;4.30;3.53;;;8.10;99.90;;;;;;5023867;28;20446;-70
2022/11/06 00:51:04;;;;;;;5.87;3.97;;;8.00;99.90;;;;;;5054892;28;20556;-70
2022/11/06 00:53:30;;;;;;;8.03;3.67;;;8.00;99.90;;;;;;5042405;28;20458;-70
2022/11/06 00:56:10;;;;;;;5.23;3.80;;;8.00;99.90;;;;;;5058152;28;20443;-69
2022/11/06 00:58:36;;;;;;;8.10;5.07;;;8.00;99.90;;;;;;5054117;28;20222;-70
2022/11/06 01:01:09;;;;;;;18.80;6.50;;;8.00;99.90;;;;;;5039533;28;20493;-69
2022/11/06 01:03:36;;;;;;;6.90;5.60;;;7.90;99.90;;;;;;5033653;28;20825;-70
2022/11/06 01:06:11;;;;;;;6.67;4.70;;;7.90;99.90;;;;;;5039717;28;20447;-70
2022/11/06 01:08:37;;;;;;;4.83;3.73;;;7.90;99.90;;;;;;5054122;28;20498;-71
2022/11/06 01:11:19;;;;;;;5.13;3.70;;;7.90;99.90;;;;;;5040640;28;20461;-69
2022/11/06 01:13:47;;;;;;;3.83;3.47;;;7.90;99.90;;;;;;5051061;28;20511;-71
2022/11/06 01:16:14;;;;;;;5.17;3.20;;;7.80;99.90;;;;;;5051881;28;20468;-70
2022/11/06 01:18:41;;;;;;;5.60;4.07;;;7.80;99.90;;;;;;5042270;28;20466;-70
2022/11/06 01:21:10;;;;;;;6.37;3.37;;;7.70;99.90;;;;;;5045086;28;20473;-70
2022/11/06 01:23:36;;;;;;;3.30;2.97;;;7.60;99.90;;;;;;5025592;28;20541;-71
2022/11/06 01:26:06;;;;;;;6.50;3.30;;;7.70;99.90;;;;;;5056579;28;20530;-71
2022/11/06 01:28:31;;;;;;;4.90;3.77;;;7.70;99.90;;;;;;5046758;28;20439;-69
2022/11/06 01:31:10;;;;;;;4.53;3.63;;;7.70;99.90;;;;;;5037928;28;20517;-70
2022/11/06 01:33:36;;;;;;;3.30;2.77;;;7.70;99.90;;;;;;5042890;28;20219;-69
2022/11/06 01:36:01;;;;;;;3.07;2.73;;;7.70;99.90;;;;;;5040823;28;20462;-70
2022/11/06 01:38:27;;;;;;;4.00;3.20;;;7.70;99.90;;;;;;5040335;28;20207;-70
2022/11/06 01:40:53;;;;;;;5.97;3.43;;;7.70;99.90;;;;;;5042047;28;20724;-69
2022/11/06 01:43:46;;;;;;;4.07;3.20;;;7.60;99.90;;;;;;5040873;28;20216;-72
2022/11/06 01:46:12;;;;;;;4.00;3.20;;;7.60;99.90;;;;;;5044305;28;20711;-71
2022/11/06 01:48:39;;;;;;;4.20;3.47;;;7.60;99.90;;;;;;5035126;28;20443;-70
2022/11/06 01:51:06;;;;;;;7.63;4.10;;;7.60;99.90;;;;;;5060709;28;20677;-69
2022/11/06 01:53:33;;;;;;;5.10;3.57;;;7.50;99.90;;;;;;5039304;28;20494;-71
2022/11/06 01:56:01;;;;;;;7.97;3.47;;;7.50;99.90;;;;;;5037093;28;20451;-70
2022/11/06 01:58:31;;;;;;;7.43;3.13;;;7.50;99.90;;;;;;5057113;28;20451;-70
2022/11/06 02:00:57;;;;;;;8.57;3.70;;;7.50;99.90;;;;;;5040119;28;20549;-71
2022/11/06 02:03:22;;;;;;;8.57;3.60;;;7.50;99.90;;;;;;5053942;28;20513;-69
2022/11/06 02:05:48;;;;;;;4.67;3.47;;;7.40;99.90;;;;;;5054961;28;20234;-69
2022/11/06 02:08:18;;;;;;;4.90;3.10;;;7.40;99.90;;;;;;5042936;28;20332;-69
2022/11/06 02:10:44;;;;;;;3.03;2.80;;;7.40;99.90;;;;;;5045167;28;20539;-70
2022/11/06 02:13:28;;;;;;;5.20;3.10;;;7.30;99.90;;;;;;5038322;28;20474;-68
2022/11/06 02:16:00;;;;;;;3.87;3.00;;;7.20;99.90;;;;;;5037504;28;20458;-69
2022/11/06 02:18:32;;;;;;;4.53;3.03;;;7.20;99.90;;;;;;5055803;28;20473;-70
2022/11/06 02:21:11;;;;;;;7.20;3.40;;;7.30;99.90;;;;;;5026875;28;20482;-72
2022/11/06 02:24:12;;;;;;;3.10;2.67;;;7.20;99.90;;;;;;5041021;28;20446;-70
2022/11/06 02:27:01;;;;;;;3.10;2.77;;;7.20;99.90;;;;;;5043043;28;20450;-70
2022/11/06 02:29:37;;;;;;;3.40;2.60;;;7.20;99.90;;;;;;5042821;28;20454;-70
2022/11/06 02:32:11;;;;;;;7.73;3.63;;;7.20;99.90;;;;;;5054804;28;20450;-71
2022/11/06 02:34:39;;;;;;;4.67;3.00;;;7.10;99.90;;;;;;5055486;28;20466;-69
2022/11/06 02:37:16;;;;;;;4.60;3.50;;;7.10;99.90;;;;;;5048322;28;20469;-69
2022/11/06 02:39:45;;;;;;;5.97;3.27;;;7.10;99.90;;;;;;5044970;28;20530;-71
2022/11/06 02:42:13;;;;;;;5.50;4.20;;;7.00;99.90;;;;;;5034724;28;21029;-70
2022/11/06 02:44:40;;;;;;;4.30;2.87;;;7.10;99.90;;;;;;5045740;28;20455;-69
2022/11/06 02:47:13;;;;;;;3.63;2.60;;;7.10;99.90;;;;;;5048388;28;21013;-69
2022/11/06 02:49:45;;;;;;;7.63;3.00;;;7.00;99.90;;;;;;5064863;28;20864;-70
2022/11/06 02:52:17;;;;;;;4.13;3.10;;;7.00;99.90;;;;;;5042364;28;20823;-70
2022/11/06 02:54:50;;;;;;;3.60;2.63;;;7.00;99.90;;;;;;5047103;28;20446;-69
2022/11/06 02:57:19;;;;;;;5.10;2.80;;;7.00;99.90;;;;;;5049378;28;21044;-69
2022/11/06 03:00:08;;;;;;;6.00;2.47;;;7.00;99.90;;;;;;5049383;28;20465;-70
2022/11/06 03:02:49;;;;;;;3.50;2.60;;;7.00;99.90;;;;;;5047112;28;20462;-69
2022/11/06 03:05:30;;;;;;;2.63;2.43;;;7.00;99.90;;;;;;5047319;28;20469;-69
2022/11/06 03:08:08;;;;;;;3.70;2.73;;;7.00;99.90;;;;;;5052761;28;21010;-70
2022/11/06 03:10:51;;;;;;;6.03;3.20;;;7.00;99.90;;;;;;5045178;28;20507;-70
2022/11/06 03:14:07;;;;;;;3.87;2.90;;;7.00;99.90;;;;;;5050416;28;21010;-70
2022/11/06 03:16:52;;;;;;;4.10;2.60;;;7.00;99.90;;;;;;5030142;28;20479;-70
2022/11/06 03:19:18;;;;;;;5.50;3.00;;;7.00;99.90;;;;;;5044703;28;20450;-70
2022/11/06 03:22:07;;;;;;;4.17;2.87;;;7.00;99.90;;;;;;5051152;28;21015;-70
2022/11/06 03:24:43;;;;;;;3.57;2.70;;;6.90;99.90;;;;;;5065356;28;20778;-70
2022/11/06 03:27:22;;;;;;;3.40;2.67;;;6.90;99.90;;;;;;5051575;28;20490;-70
2022/11/06 03:30:06;;;;;;;5.67;2.83;;;6.90;99.90;;;;;;5062568;28;20459;-71
2022/11/06 03:32:34;;;;;;;3.17;2.97;;;6.90;99.90;;;;;;5047517;28;20927;-71
2022/11/06 03:35:09;;;;;;;3.53;2.53;;;6.90;99.90;;;;;;5020902;28;20474;-69
2022/11/06 03:37:41;;;;;;;3.50;2.77;;;6.90;99.90;;;;;;5051426;28;20932;-70
2022/11/06 03:40:12;;;;;;;6.50;3.50;;;6.90;99.90;;;;;;5062451;28;20471;-69
2022/11/06 03:42:40;;;;;;;2.53;2.30;;;6.90;99.90;;;;;;5046853;28;20450;-69
2022/11/06 03:45:09;;;;;;;3.17;2.87;;;6.90;99.90;;;;;;5034095;28;20559;-70
2022/11/06 03:47:46;;;;;;;5.80;3.30;;;6.90;99.90;;;;;;5050402;28;20456;-69
2022/11/06 03:50:20;;;;;;;3.10;2.33;;;6.80;99.90;;;;;;5045442;28;20464;-71
2022/11/06 03:52:54;;;;;;;2.57;2.37;;;6.80;99.90;;;;;;5050134;28;20457;-68
2022/11/06 03:55:27;;;;;;;3.60;2.40;;;6.80;99.90;;;;;;5047644;28;20980;-69
2022/11/06 03:58:24;;;;;;;3.90;3.03;;;6.80;99.90;;;;;;5043781;28;20457;-69
2022/11/06 04:00:51;;;;;;;2.37;2.17;;;6.80;99.90;;;;;;5044215;28;20454;-69
2022/11/06 04:03:29;;;;;;;7.30;2.70;;;6.80;99.90;;;;;;5031542;28;20501;-70
2022/11/06 04:06:05;;;;;;;4.20;2.50;;;6.70;99.90;;;;;;5050541;28;20459;-69
2022/11/06 04:14:06;;;;;;;2.60;2.40;;;6.70;99.90;;;;;;5045921;28;20559;-71
2022/11/06 04:16:38;;;;;;;2.63;2.27;;;6.70;99.90;;;;;;5059590;28;20464;-69
2022/11/06 04:19:16;;;;;;;4.60;3.00;;;6.70;99.90;;;;;;5045091;28;20554;-71
2022/11/06 04:21:41;;;;;;;2.93;2.53;;;6.70;99.90;;;;;;5040207;28;20447;-70
2022/11/06 04:27:14;;;;;;;1.97;1.87;;;6.70;99.90;;;;;;5055773;28;20310;-69
2022/11/06 04:29:55;;;;;;;2.53;2.33;;;6.70;99.90;;;;;;5063243;28;20450;-69
2022/11/06 04:32:44;;;;;;;5.73;3.40;;;6.70;99.90;;;;;;5057597;28;20454;-69
2022/11/06 04:35:21;;;;;;;4.87;2.50;;;6.60;99.90;;;;;;5041553;28;20455;-68
2022/11/06 04:38:02;;;;;;;6.33;2.80;;;6.60;99.90;;;;;;5048584;28;21013;-69
2022/11/06 04:40:44;;;;;;;2.60;2.10;;;6.60;99.90;;;;;;5055358;28;20874;-70
2022/11/06 04:43:14;;;;;;;2.73;2.20;;;6.60;99.90;;;;;;5053022;28;20466;-70
2022/11/06 04:45:45;;;;;;;4.17;2.83;;;6.50;99.90;;;;;;5039693;28;20470;-69
2022/11/06 04:48:11;;;;;;;4.50;2.77;;;6.50;99.90;;;;;;5046662;28;20477;-71
2022/11/06 04:50:48;;;;;;;4.00;2.73;;;6.50;99.90;;;;;;5019211;28;20459;-70
2022/11/06 04:53:16;;;;;;;3.20;2.07;;;6.50;99.90;;;;;;5045326;28;20462;-70
2022/11/06 04:55:51;;;;;;;3.53;2.27;;;6.50;99.90;;;;;;5049075;28;20482;-69
2022/11/06 04:58:17;;;;;;;3.13;2.30;;;6.50;99.90;;;;;;5044552;28;20447;-70
2022/11/06 05:00:49;;;;;;;3.50;2.30;;;6.50;99.90;;;;;;5038739;28;20458;-69
2022/11/06 05:03:15;;;;;;;4.50;2.70;;;6.50;99.90;;;;;;5041265;28;20216;-69
2022/11/06 05:05:42;;;;;;;4.03;2.73;;;6.50;99.90;;;;;;5045115;28;20461;-69
2022/11/06 05:08:18;;;;;;;5.43;2.53;;;6.50;99.90;;;;;;5057470;28;20444;-70
2022/11/06 05:10:44;;;;;;;4.30;3.07;;;6.50;99.90;;;;;;5043056;28;20458;-69
2022/11/06 05:13:11;;;;;;;6.10;2.93;;;6.50;99.90;;;;;;5039799;28;20837;-69
2022/11/06 05:15:37;;;;;;;3.47;2.70;;;6.50;99.90;;;;;;5039122;28;20220;-70
2022/11/06 05:18:03;;;;;;;3.27;2.47;;;6.40;99.90;;;;;;5057416;28;20987;-69
2022/11/06 05:20:29;;;;;;;3.47;2.53;;;6.40;99.90;;;;;;5042244;28;20523;-69
2022/11/06 05:22:59;;;;;;;3.37;2.57;;;6.40;99.90;;;;;;5041218;28;20467;-70
2022/11/06 05:25:36;;;;;;;3.70;2.73;;;6.40;99.90;;;;;;5042696;28;20470;-70
2022/11/06 05:28:06;;;;;;;5.20;3.20;;;6.40;99.90;;;;;;5058226;28;20849;-70
2022/11/06 05:30:36;;;;;;;5.10;2.70;;;6.40;99.90;;;;;;5040459;28;20529;-70
2022/11/06 05:33:02;;;;;;;2.63;1.70;;;6.40;99.90;;;;;;5041920;28;20452;-71
2022/11/06 05:35:27;;;;;;;2.50;2.30;;;6.30;99.90;;;;;;5055093;28;20960;-69
2022/11/06 05:38:01;;;;;;;3.33;2.83;;;6.30;99.90;;;;;;5045523;28;20341;-69
2022/11/06 05:40:27;;;;;;;2.57;1.90;;;6.30;99.90;;;;;;5042742;28;20227;-69
2022/11/06 05:42:53;;;;;;;3.33;2.50;;;6.30;99.90;;;;;;5052923;28;20466;-70
2022/11/06 05:45:18;;;;;;;5.63;2.47;;;6.30;99.90;;;;;;5060655;28;20470;-70
2022/11/06 05:47:44;;;;;;;3.37;2.70;;;6.30;99.90;;;;;;5040102;28;20311;-69
2022/11/06 05:50:10;;;;;;;2.33;1.93;;;6.30;99.90;;;;;;5040259;28;20282;-71
2022/11/06 05:52:36;;;;;;;4.07;2.80;;;6.20;99.90;;;;;;5043271;28;20216;-70
2022/11/06 05:55:02;;;;;;;2.73;2.53;;;6.20;99.90;;;;;;5050762;28;20274;-71
2022/11/06 05:57:28;;;;;;;2.87;2.40;;;6.20;99.90;;;;;;5055432;28;20506;-70
2022/11/06 05:59:54;;;;;;;2.90;2.50;;;6.20;99.90;;;;;;5055285;28;20467;-70
2022/11/06 06:02:19;;;;;;;3.63;2.43;;;6.20;99.90;;;;;;5051143;28;20270;-70
2022/11/06 06:04:45;;;;;;;7.17;3.33;;;6.20;99.90;;;;;;5042885;28;20224;-68
2022/11/06 06:07:10;;;;;;;4.87;3.60;;;6.20;99.90;;;;;;5056020;28;20217;-71
2022/11/06 06:09:36;;;;;;;3.30;3.00;;;6.10;99.90;;;;;;5044003;28;20221;-70
2022/11/06 06:12:02;;;;;;;4.10;3.57;;;6.10;99.90;;;;;;5047942;28;20216;-71
2022/11/06 06:14:27;;;;;;;4.50;3.50;;;6.00;99.90;;;;;;5042209;28;20218;-70
2022/11/06 06:16:53;;;;;;;5.40;3.83;;;6.00;99.90;;;;;;5038958;28;20279;-69
2022/11/06 06:19:19;;;;;;;4.43;3.50;;;6.10;99.90;;;;;;5038729;28;20768;-71
2022/11/06 06:21:44;;;;;;;4.87;3.27;;;6.10;99.90;;;;;;5044864;28;20684;-69
2022/11/06 06:24:10;;;;;;;5.53;3.60;;;6.00;99.90;;;;;;5039194;28;20236;-69
2022/11/06 06:26:36;;;;;;;6.90;4.40;;;6.00;99.90;;;;;;5038698;28;20292;-70
2022/11/06 06:29:02;;;;;;;6.93;4.10;;;6.00;99.90;;;;;;5043924;28;20212;-71
2022/11/06 06:31:27;;;;;;;7.20;4.43;;;6.00;99.90;;;;;;5043735;28;20240;-70
2022/11/06 06:33:53;;;;;;;8.77;4.70;;;6.00;99.90;;;;;;5040569;28;20243;-69
2022/11/06 06:36:19;;;;;;;8.40;4.60;;;6.00;99.90;;;;;;5059896;28;20204;-69
2022/11/06 06:38:44;;;;;;;4.50;3.40;;;6.00;99.90;;;;;;5043574;28;20555;-71
2022/11/06 06:41:10;;;;;;;9.47;5.70;;;5.90;99.90;;;;;;5042056;28;20220;-70
2022/11/06 06:43:36;;;;;;;9.97;6.10;;;5.90;99.90;;;;;;5043448;28;20215;-70
2022/11/06 06:46:04;;;;;;;6.60;5.17;;;5.90;99.90;;;;;;5043081;28;20242;-69
2022/11/06 06:48:30;;;;;;;5.83;5.23;;;5.90;99.90;;;;;;5043847;28;20208;-68
2022/11/06 06:50:57;;;;;;;11.53;8.70;;;5.90;99.90;;;;;;5060257;28;20459;-70
2022/11/06 06:53:23;;;;;;;9.40;7.80;;;5.90;99.90;;;;;;5049947;28;20211;-70
2022/11/06 06:55:49;;;;;;;8.60;6.70;;;5.90;99.90;;;;;;5062885;28;20451;-70
2022/11/06 06:58:14;;;;;;;10.20;7.40;;;5.90;99.90;;;;;;5047002;28;20806;-70
2022/11/06 07:00:40;;;;;;;8.60;6.53;;;5.80;99.90;;;;;;5045861;28;20793;-70
2022/11/06 07:03:06;;;;;;;11.37;7.80;;;5.80;99.90;;;;;;5049383;28;20216;-69
2022/11/06 07:05:31;;;;;;;11.50;7.40;;;5.80;99.90;;;;;;5043904;28;20718;-70
2022/11/06 07:07:57;;;;;;;11.13;7.47;;;5.80;99.90;;;;;;5059044;28;20221;-70
2022/11/06 07:10:23;;;;;;;8.30;6.10;;;5.80;99.90;;;;;;5057083;28;20271;-69
2022/11/06 07:12:48;;;;;;;10.67;7.03;;;5.80;99.90;;;;;;5050486;28;20232;-70
2022/11/06 07:15:14;;;;;;;10.90;6.63;;;5.70;99.90;;;;;;5053550;28;20220;-69
2022/11/06 07:17:40;;;;;;;11.90;8.37;;;5.70;99.90;;;;;;5040518;28;20224;-70
2022/11/06 07:20:07;;;;;;;14.07;7.83;;;5.70;99.90;;;;;;5045820;28;20219;-70
2022/11/06 07:22:33;;;;;;;9.80;6.40;;;5.70;99.90;;;;;;5044619;28;20220;-70
2022/11/06 07:24:58;;;;;;;7.43;6.13;;;5.70;99.90;;;;;;5050871;28;20467;-70
2022/11/06 07:27:24;;;;;;;10.00;6.97;;;5.70;99.90;;;;;;5042673;28;20227;-70
2022/11/06 07:29:50;;;;;;;8.90;6.50;;;5.70;99.90;;;;;;5045617;28;20300;-70
2022/11/06 07:32:15;;;;;;;14.63;8.67;;;5.70;99.90;;;;;;5062461;28;20696;-70
2022/11/06 07:34:41;;;;;;;9.90;6.97;;;5.70;99.90;;;;;;5042846;28;20296;-70
2022/11/06 07:37:07;;;;;;;9.00;6.07;;;5.70;99.90;;;;;;5055509;28;20684;-70
2022/11/06 07:39:33;;;;;;;8.03;5.20;;;5.70;99.90;;;;;;5040396;28;20216;-71
2022/11/06 07:41:58;;;;;;;6.53;4.77;;;5.70;99.90;;;;;;5055231;28;20211;-71
2022/11/06 07:44:32;;;;;;;4.40;3.93;;;5.70;99.90;;;;;;5061119;28;20470;-71
2022/11/06 07:46:57;;;;;;;4.93;3.73;;;5.70;99.90;;;;;;5060125;28;20473;-70
2022/11/06 07:49:23;;;;;;;6.00;4.67;;;5.60;99.90;;;;;;5056265;28;20224;-70
2022/11/06 07:51:48;;;;;;;6.10;3.90;;;5.70;99.90;;;;;;5046384;28;20243;-70
2022/11/06 07:54:14;;;;;;;4.90;3.70;;;5.70;99.90;;;;;;5042047;28;20235;-69
2022/11/06 07:56:40;;;;;;;6.67;4.03;;;5.70;99.90;;;;;;5028906;28;20213;-70
2022/11/06 07:59:05;;;;;;;4.67;3.73;;;5.70;99.90;;;;;;5043948;28;20239;-69
2022/11/06 08:01:31;;;;;;;5.37;4.40;;;5.70;99.90;;;;;;5056935;28;20223;-70
2022/11/06 08:03:56;;;;;;;4.60;3.77;;;5.70;99.90;;;;;;5036409;28;20212;-69
2022/11/06 08:06:22;;;;;;;8.80;5.47;;;5.70;99.90;;;;;;5043535;28;20573;-70
2022/11/06 08:08:48;;;;;;;7.07;5.43;;;5.70;99.90;;;;;;5047645;28;20634;-70
2022/11/06 08:11:14;;;;;;;11.73;6.07;;;5.70;99.90;;;;;;5040197;28;20220;-70
2022/11/06 08:13:40;;;;;;;13.40;7.80;;;5.70;99.90;;;;;;5024433;28;20228;-70
2022/11/06 08:16:07;;;;;;;11.97;6.50;;;5.80;99.90;;;;;;5055950;28;20204;-69
2022/11/06 08:18:33;;;;;;;7.23;4.90;;;5.80;99.90;;;;;;5041818;28;20255;-70
2022/11/06 08:20:59;;;;;;;9.47;5.30;;;5.70;99.90;;;;;;5037271;28;20500;-70
2022/11/06 08:23:25;;;;;;;5.83;4.30;;;5.80;99.90;;;;;;5039593;28;20454;-70
2022/11/06 08:26:00;;;;;;;7.00;4.40;;;5.80;99.90;;;;;;5037033;28;20282;-70
2022/11/06 08:28:26;;;;;;;11.20;6.23;;;5.80;99.90;;;;;;5057720;28;20714;-69
2022/11/06 08:30:52;;;;;;;10.23;5.90;;;5.80;99.90;;;;;;5053428;28;20566;-69
2022/11/06 08:33:19;;;;;;;9.73;5.80;;;5.80;99.90;;;;;;5053787;28;20459;-68
2022/11/06 08:35:44;;;;;;;5.27;3.67;;;5.80;99.90;;;;;;5045382;28;20477;-70
2022/11/06 08:38:10;;;;;;;5.53;3.60;;;5.80;99.90;;;;;;5040936;28;20554;-69
2022/11/06 08:40:39;;;;;;;6.27;4.07;;;5.80;99.90;;;;;;5039761;28;20259;-70
2022/11/06 08:43:07;;;;;;;7.60;5.33;;;5.80;99.90;;;;;;5058317;28;20215;-70
2022/11/06 08:45:41;;;;;;;6.50;5.10;;;5.90;99.90;;;;;;5042221;28;20446;-69
2022/11/06 08:48:07;;;;;;;6.30;4.70;;;5.90;99.90;;;;;;5039458;28;20975;-70
2022/11/06 08:50:34;;;;;;;5.70;4.27;;;5.90;99.90;;;;;;5041607;28;20526;-68
2022/11/06 08:53:03;;;;;;;5.67;4.80;;;5.90;99.90;;;;;;5038444;28;20526;-69
2022/11/06 08:55:30;;;;;;;6.70;4.40;;;5.90;99.90;;;;;;5059700;28;20458;-70
2022/11/06 08:57:55;;;;;;;6.13;4.60;;;5.90;99.90;;;;;;5042214;28;20467;-69
2022/11/06 09:00:22;;;;;;;10.70;6.37;;;5.90;99.90;;;;;;5040428;28;20525;-69
2022/11/06 09:02:47;;;;;;;13.57;9.17;;;5.90;99.90;;;;;;5056362;28;20458;-70
2022/11/06 09:05:13;;;;;;;10.37;8.30;;;5.90;99.90;;;;;;5057503;28;20478;-69
2022/11/06 09:07:39;;;;;;;13.07;7.53;;;5.90;99.90;;;;;;5036766;28;20314;-71
2022/11/06 09:10:05;;;;;;;8.83;6.87;;;6.00;99.90;;;;;;5058309;28;20660;-70
2022/11/06 09:12:31;;;;;;;6.47;5.20;;;6.00;99.90;;;;;;5051091;28;20226;-70
2022/11/06 09:14:56;;;;;;;8.77;6.00;;;6.00;99.90;;;;;;5034233;28;20497;-69
2022/11/06 09:17:23;;;;;;;7.10;5.37;;;6.00;99.90;;;;;;5036798;28;20236;-69
2022/11/06 09:19:52;;;;;;;7.33;5.57;;;6.10;99.90;;;;;;5045905;28;20253;-70
2022/11/06 09:22:18;;;;;;;9.90;6.23;;;6.10;99.90;;;;;;5038825;28;20462;-71
2022/11/06 09:24:44;;;;;;;7.07;5.57;;;6.10;99.90;;;;;;5051021;28;20497;-70
2022/11/06 09:27:09;;;;;;;9.37;5.90;;;6.20;99.90;;;;;;5044579;28;20498;-69
2022/11/06 09:29:39;;;;;;;7.63;5.37;;;6.20;99.90;;;;;;5045444;28;20511;-69
2022/11/06 09:32:05;;;;;;;10.57;5.93;;;6.20;99.90;;;;;;5042403;28;20282;-69
2022/11/06 09:34:31;;;;;;;8.60;5.23;;;6.20;99.90;;;;;;5038934;28;20477;-69
2022/11/06 09:36:57;;;;;;;8.83;5.17;;;6.20;99.90;;;;;;5052321;28;20479;-70
2022/11/06 09:39:22;;;;;;;8.57;5.73;;;6.30;99.90;;;;;;5035602;28;20228;-69
2022/11/06 09:41:57;;;;;;;14.20;9.17;;;6.30;99.90;;;;;;5037987;28;20221;-71
2022/11/06 09:44:36;;;;;;;12.27;8.93;;;6.30;99.90;;;;;;5041151;28;20301;-71
2022/11/06 09:47:08;;;;;;;20.90;14.27;;;6.30;99.90;;;;;;5041849;28;20455;-70
2022/11/06 09:49:40;;;;;;;22.57;14.83;;;6.30;99.90;;;;;;5058397;28;20442;-72
2022/11/06 09:52:24;;;;;;;23.80;15.20;;;6.40;99.90;;;;;;5056402;28;20452;-70
2022/11/06 09:54:58;;;;;;;20.03;15.17;;;6.40;99.90;;;;;;5022139;28;20530;-73
2022/11/06 09:57:28;;;;;;;17.87;12.17;;;6.40;99.90;;;;;;5028706;28;20477;-71
2022/11/06 09:59:56;;;;;;;13.40;9.60;;;6.50;99.90;;;;;;5028114;28;20525;-70
2022/11/06 10:02:32;;;;;;;13.23;8.00;;;6.50;99.90;;;;;;5037739;28;20454;-70
2022/11/06 10:05:01;;;;;;;15.67;7.07;;;6.50;99.90;;;;;;5037822;28;20904;-70
2022/11/06 10:07:31;;;;;;;15.13;8.03;;;6.50;99.90;;;;;;5040933;28;20481;-71
2022/11/06 10:09:58;;;;;;;9.47;7.93;;;6.60;99.90;;;;;;5053154;28;20474;-71
2022/11/06 10:12:37;;;;;;;13.23;8.47;;;6.60;99.90;;;;;;5040918;28;20538;-71
2022/11/06 10:15:24;;;;;;;12.37;8.50;;;6.60;99.90;;;;;;5042864;28;20466;-70
2022/11/06 10:18:06;;;;;;;14.60;8.20;;;6.60;99.90;;;;;;5062693;28;20461;-71
2022/11/06 10:20:46;;;;;;;11.20;8.07;;;6.70;99.90;;;;;;5028417;28;20506;-71
2022/11/06 10:23:18;;;;;;;10.20;6.73;;;6.70;99.90;;;;;;5041067;28;20465;-72
2022/11/06 10:25:56;;;;;;;15.33;8.77;;;6.70;99.90;;;;;;5050274;28;20477;-71
2022/11/06 10:28:52;;;;;;;9.27;7.00;;;6.70;99.90;;;;;;5026607;28;20469;-71
2022/11/06 10:31:20;;;;;;;12.47;7.60;;;6.80;99.90;;;;;;5042852;28;20475;-72
2022/11/06 10:34:04;;;;;;;12.33;8.57;;;6.80;99.90;;;;;;5057935;28;20466;-72
2022/11/06 10:36:50;;;;;;;10.83;7.50;;;6.80;99.90;;;;;;5057923;28;20470;-71
2022/11/06 10:39:27;;;;;;;12.00;8.10;;;6.90;99.90;;;;;;5040760;28;20463;-71
2022/11/06 10:42:01;;;;;;;13.80;7.83;;;6.90;99.90;;;;;;5041120;28;20562;-68
2022/11/06 10:44:36;;;;;;;9.60;6.30;;;7.00;99.90;;;;;;5059123;28;20479;-70
2022/11/06 10:47:10;;;;;;;11.73;6.80;;;7.00;99.90;;;;;;5043820;28;20457;-69
2022/11/06 10:49:44;;;;;;;9.67;6.80;;;7.10;99.90;;;;;;5038363;28;20550;-69
2022/11/06 10:52:13;;;;;;;8.03;6.47;;;7.20;99.90;;;;;;5058394;28;20454;-70
2022/11/06 10:55:04;;;;;;;10.10;6.40;;;7.20;99.90;;;;;;5028828;28;20527;-69
2022/11/06 10:57:51;;;;;;;9.23;6.37;;;7.30;99.90;;;;;;5027186;28;20450;-69
2022/11/06 11:00:17;;;;;;;10.17;6.90;;;7.40;99.90;;;;;;5039878;28;20528;-68
2022/11/06 11:02:48;;;;;;;10.40;6.90;;;7.40;99.90;;;;;;5041281;28;20470;-69
2022/11/06 11:05:16;;;;;;;10.60;7.03;;;7.50;99.90;;;;;;5052411;28;20838;-69
2022/11/06 11:07:45;;;;;;;6.90;5.60;;;7.60;99.90;;;;;;5044038;28;20455;-71
2022/11/06 11:10:24;;;;;;;7.43;5.30;;;7.70;99.90;;;;;;5040337;28;20516;-69
2022/11/06 11:12:53;;;;;;;7.73;5.80;;;7.80;99.90;;;;;;5041261;28;20573;-69
2022/11/06 11:15:21;;;;;;;10.40;6.10;;;7.90;99.90;;;;;;5035781;28;20455;-69
2022/11/06 11:18:11;;;;;;;6.13;5.43;;;8.00;99.90;;;;;;5038793;28;20459;-69
2022/11/06 11:20:40;;;;;;;8.90;5.47;;;8.10;99.90;;;;;;5055649;28;20516;-68
2022/11/06 11:23:27;;;;;;;7.33;5.90;;;8.10;99.90;;;;;;5056293;28;20463;-69
2022/11/06 11:25:55;;;;;;;8.20;5.73;;;8.20;99.90;;;;;;5052058;28;20526;-69
2022/11/06 11:28:20;;;;;;;8.37;5.70;;;8.30;99.90;;;;;;5046914;28;20490;-68
2022/11/06 11:31:12;;;;;;;9.97;6.67;;;8.40;99.90;;;;;;5053142;28;20478;-68
2022/11/06 11:33:40;;;;;;;10.33;6.60;;;8.40;99.90;;;;;;5053468;28;20217;-71
2022/11/06 11:36:07;;;;;;;10.07;7.00;;;8.40;99.90;;;;;;5043390;28;20890;-68
2022/11/06 11:38:37;;;;;;;7.30;5.87;;;8.40;99.90;;;;;;5056062;28;20527;-69
2022/11/06 11:41:18;;;;;;;13.87;7.93;;;8.50;99.90;;;;;;5052506;28;20527;-68
2022/11/06 11:44:03;;;;;;;14.97;8.70;;;8.50;99.90;;;;;;5039297;28;20609;-69
2022/11/06 11:46:30;;;;;;;16.20;10.10;;;8.50;99.90;;;;;;5045208;28;20528;-69
2022/11/06 11:48:57;;;;;;;15.13;9.27;;;8.60;99.90;;;;;;5057326;28;20455;-69
2022/11/06 11:51:23;;;;;;;15.37;9.53;;;8.70;99.90;;;;;;5051252;28;20926;-68
2022/11/06 11:53:50;;;;;;;15.90;9.97;;;8.80;99.90;;;;;;5046405;28;20537;-68
2022/11/06 11:56:19;;;;;;;14.50;10.10;;;8.80;99.90;;;;;;5039932;28;20220;-70
2022/11/06 11:58:51;;;;;;;21.30;9.47;;;8.90;99.90;;;;;;5042221;28;20465;-69
2022/11/06 12:01:18;;;;;;;13.37;8.17;;;8.90;99.90;;;;;;5027053;28;20553;-68
2022/11/06 12:03:48;;;;;;;12.07;7.37;;;9.00;99.90;;;;;;5039349;28;20453;-69
2022/11/06 12:06:16;;;;;;;11.60;8.10;;;9.00;99.90;;;;;;5033251;28;20478;-68
2022/11/06 12:08:50;;;;;;;11.50;7.23;;;9.10;99.90;;;;;;5037867;28;20463;-69
2022/11/06 12:11:27;;;;;;;7.87;5.10;;;9.20;99.90;;;;;;5044026;28;20469;-68
2022/11/06 12:14:21;;;;;;;5.37;4.60;;;9.20;99.90;;;;;;5040469;28;20469;-69
2022/11/06 12:16:52;;;;;;;8.97;5.90;;;9.40;99.90;;;;;;5043433;28;20455;-70
2022/11/06 12:19:20;;;;;;;8.60;6.77;;;9.40;99.90;;;;;;5039935;28;20473;-69
2022/11/06 12:21:53;;;;;;;10.30;7.07;;;9.50;99.90;;;;;;5038617;28;20470;-69
2022/11/06 12:24:29;;;;;;;8.50;6.50;;;9.50;99.90;;;;;;5023068;28;20470;-70
2022/11/06 12:27:00;;;;;;;8.90;5.87;;;9.50;99.90;;;;;;5043259;28;20462;-71
2022/11/06 12:29:47;;;;;;;11.67;7.37;;;9.50;99.90;;;;;;5039759;28;20987;-71
2022/11/06 12:32:36;;;;;;;9.73;6.60;;;9.50;99.90;;;;;;5038128;28;20454;-70
2022/11/06 12:35:12;;;;;;;11.97;7.00;;;9.50;99.90;;;;;;5056659;28;20458;-70
2022/11/06 12:37:44;;;;;;;17.20;6.90;;;9.40;99.90;;;;;;5044569;28;20953;-70
2022/11/06 12:40:20;;;;;;;9.13;6.63;;;9.50;99.90;;;;;;5047988;28;20506;-70
2022/11/06 12:43:11;;;;;;;10.27;6.57;;;9.50;99.90;;;;;;5045390;28;20976;-70
2022/11/06 12:45:46;;;;;;;11.70;7.90;;;9.50;99.90;;;;;;5059998;28;20470;-70
2022/11/06 12:48:30;;;;;;;12.40;7.60;;;9.50;99.90;;;;;;5032252;28;20469;-71
2022/11/06 12:51:11;;;;;;;12.23;7.70;;;9.50;99.90;;;;;;5041996;28;20546;-70
2022/11/06 12:54:10;;;;;;;9.57;6.20;;;9.50;99.90;;;;;;5027175;28;20595;-69
2022/11/06 12:56:53;;;;;;;9.23;6.30;;;9.60;99.90;;;;;;5048488;28;20443;-70
2022/11/06 12:59:22;;;;;;;9.13;6.33;;;9.60;99.90;;;;;;5045815;28;20451;-71
2022/11/06 13:02:22;;;;;;;10.33;6.80;;;9.60;99.90;;;;;;5046969;28;20458;-71
2022/11/06 13:05:26;;;;;;;7.10;5.80;;;9.60;99.90;;;;;;5052674;28;20482;-70
2022/11/06 13:07:58;;;;;;;8.63;6.10;;;9.60;99.90;;;;;;5042674;28;20455;-69
2022/11/06 13:10:42;;;;;;;6.13;5.53;;;9.60;99.90;;;;;;5051767;28;20525;-70
2022/11/06 13:13:27;;;;;;;7.27;6.03;;;9.70;99.90;;;;;;5046878;28;20493;-70
2022/11/06 13:15:52;;;;;;;10.30;6.80;;;9.70;99.90;;;;;;5048606;28;20994;-70
2022/11/06 13:18:26;;;;;;;8.63;6.17;;;9.70;99.90;;;;;;5045004;28;20545;-69
2022/11/06 13:21:02;;;;;;;10.53;6.73;;;9.80;99.90;;;;;;5048836;28;20223;-70
2022/11/06 13:23:40;;;;;;;10.27;7.17;;;9.80;99.90;;;;;;5040752;28;20472;-70
2022/11/06 13:26:11;;;;;;;9.60;6.77;;;9.80;99.90;;;;;;5041526;28;20486;-70